createdAt,value
2018-03-18T00:00:37.700Z,0.82
2018-03-18T00:01:37.668Z,0.82
2018-03-18T00:02:37.638Z,0.90
2018-03-18T00:03:37.609Z,0.85
2018-03-18T00:04:37.580Z,0.86
2018-03-18T00:05:37.549Z,0.86
2018-03-18T00:06:37.521Z,0.89
2018-03-18T00:07:37.489Z,0.86
2018-03-18T00:08:37.462Z,0.92
2018-03-18T00:09:37.432Z,0.96
2018-03-18T00:10:38.902Z,0.86
2018-03-18T00:11:37.372Z,0.92
2018-03-18T00:12:37.341Z,0.89
2018-03-18T00:13:37.314Z,0.92
2018-03-18T00:14:37.283Z,0.88
2018-03-18T00:15:37.254Z,0.89
2018-03-18T00:16:37.224Z,0.94
2018-03-18T00:17:37.193Z,0.96
2018-03-18T00:18:37.173Z,0.80
2018-03-18T00:19:37.161Z,0.92
2018-03-18T00:20:37.105Z,0.85
2018-03-18T00:21:37.075Z,0.94
2018-03-18T00:22:37.046Z,0.94
2018-03-18T00:23:37.015Z,1.01
2018-03-18T00:24:37.021Z,0.94
2018-03-18T00:25:36.958Z,0.90
2018-03-18T00:26:36.932Z,0.86
2018-03-18T00:27:36.900Z,0.85
2018-03-18T00:28:36.869Z,0.80
2018-03-18T00:29:36.838Z,0.86
2018-03-18T00:30:36.811Z,0.85
2018-03-18T00:31:36.778Z,0.82
2018-03-18T00:32:36.750Z,0.92
2018-03-18T00:33:36.723Z,0.82
2018-03-18T00:34:36.692Z,0.89
2018-03-18T00:35:36.660Z,0.89
2018-03-18T00:36:36.632Z,0.90
2018-03-18T00:37:36.602Z,0.85
2018-03-18T00:38:36.573Z,0.86
2018-03-18T00:39:36.593Z,0.86
2018-03-18T00:40:36.513Z,0.86
2018-03-18T00:41:36.485Z,0.88
2018-03-18T00:42:36.455Z,0.85
2018-03-18T00:43:36.429Z,0.89
2018-03-18T00:44:36.396Z,0.76
2018-03-18T00:45:36.367Z,0.71
2018-03-18T00:46:36.337Z,0.82
2018-03-18T00:47:36.334Z,0.65
2018-03-18T00:48:36.276Z,0.62
2018-03-18T00:49:36.248Z,0.53
2018-03-18T00:50:36.219Z,0.58
2018-03-18T00:51:36.187Z,0.67
2018-03-18T00:52:36.157Z,0.68
2018-03-18T00:53:36.130Z,0.53
2018-03-18T00:54:36.101Z,0.51
2018-03-18T00:55:36.068Z,0.52
2018-03-18T00:56:36.041Z,0.48
2018-03-18T00:57:36.012Z,0.61
2018-03-18T00:58:35.980Z,0.60
2018-03-18T00:59:35.950Z,0.71
2018-03-18T01:00:35.920Z,0.49
2018-03-18T01:01:35.898Z,0.53
2018-03-18T01:02:35.864Z,0.57
2018-03-18T01:03:35.831Z,0.57
2018-03-18T01:04:38.061Z,0.53
2018-03-18T01:05:35.773Z,0.53
2018-03-18T01:06:35.743Z,0.48
2018-03-18T01:07:35.712Z,0.52
2018-03-18T01:08:35.683Z,0.57
2018-03-18T01:09:35.652Z,0.51
2018-03-18T01:10:35.625Z,0.51
2018-03-18T01:11:35.594Z,0.43
2018-03-18T01:12:35.565Z,0.46
2018-03-18T01:13:35.536Z,0.42
2018-03-18T01:14:35.505Z,0.48
2018-03-18T01:15:35.473Z,0.45
2018-03-18T01:16:35.446Z,0.36
2018-03-18T01:17:35.417Z,0.45
2018-03-18T01:18:35.385Z,0.42
2018-03-18T01:19:35.354Z,0.41
2018-03-18T01:20:35.328Z,0.49
2018-03-18T01:21:35.296Z,0.57
2018-03-18T01:22:35.267Z,0.45
2018-03-18T01:23:35.237Z,0.39
2018-03-18T01:24:35.206Z,0.30
2018-03-18T01:25:35.176Z,0.31
2018-03-18T01:26:35.147Z,0.41
2018-03-18T01:27:35.116Z,0.33
2018-03-18T01:28:35.089Z,0.33
2018-03-18T01:29:35.059Z,0.34
2018-03-18T01:30:35.028Z,0.33
2018-03-18T01:31:34.999Z,0.31
2018-03-18T01:32:34.968Z,0.30
2018-03-18T01:33:34.938Z,0.36
2018-03-18T01:34:34.907Z,0.33
2018-03-18T01:35:34.878Z,0.38
2018-03-18T01:36:34.848Z,0.28
2018-03-18T01:37:34.818Z,0.27
2018-03-18T01:38:34.790Z,0.27
2018-03-18T01:39:34.757Z,0.28
2018-03-18T01:40:34.727Z,0.28
2018-03-18T01:41:34.699Z,0.23
2018-03-18T01:42:34.670Z,0.30
2018-03-18T01:43:34.640Z,0.34
2018-03-18T01:44:34.610Z,0.30
2018-03-18T01:45:34.578Z,0.25
2018-03-18T01:46:34.552Z,0.24
2018-03-18T01:47:34.518Z,0.27
2018-03-18T01:48:34.488Z,0.15
2018-03-18T01:49:34.459Z,0.18
2018-03-18T01:50:34.429Z,0.28
2018-03-18T01:51:34.397Z,0.16
2018-03-18T01:52:35.119Z,0.20
2018-03-18T01:53:34.343Z,0.16
2018-03-18T01:54:34.309Z,0.21
2018-03-18T01:55:34.286Z,0.21
2018-03-18T01:56:34.249Z,0.13
2018-03-18T01:57:34.219Z,0.18
2018-03-18T01:58:34.189Z,0.27
2018-03-18T01:59:34.160Z,0.23
2018-03-18T02:00:34.130Z,0.21
2018-03-18T02:01:34.098Z,0.18
2018-03-18T02:02:34.069Z,0.23
2018-03-18T02:03:34.038Z,0.18
2018-03-18T02:04:34.008Z,0.07
2018-03-18T02:05:33.979Z,0.07
2018-03-18T02:06:33.954Z,0.21
2018-03-18T02:07:33.917Z,0.18
2018-03-18T02:08:33.888Z,0.06
2018-03-18T02:09:33.860Z,0.03
2018-03-18T02:10:33.829Z,0.06
2018-03-18T02:11:33.798Z,0.02
2018-03-18T02:12:33.767Z,0.05
2018-03-18T02:13:33.738Z,0.10
2018-03-18T02:14:33.710Z,0.10
2018-03-18T02:15:33.679Z,0.13
2018-03-18T02:16:33.649Z,0.02
2018-03-18T02:17:33.616Z,-0.01
2018-03-18T02:18:33.589Z,0.03
2018-03-18T02:19:34.306Z,-0.01
2018-03-18T02:20:33.529Z,-0.05
2018-03-18T02:21:33.496Z,-0.06
2018-03-18T02:22:33.466Z,-0.12
2018-03-18T02:23:33.435Z,-0.12
2018-03-18T02:24:33.405Z,-0.09
2018-03-18T02:25:33.376Z,-0.08
2018-03-18T02:26:33.346Z,0.07
2018-03-18T02:27:33.321Z,0.07
2018-03-18T02:28:33.285Z,0.06
2018-03-18T02:29:33.256Z,0.07
2018-03-18T02:30:33.227Z,0.03
2018-03-18T02:31:33.198Z,0.03
2018-03-18T02:32:33.164Z,-0.05
2018-03-18T02:33:33.137Z,-0.01
2018-03-18T02:34:33.106Z,-0.05
2018-03-18T02:35:33.074Z,0.09
2018-03-18T02:36:33.044Z,-0.08
2018-03-18T02:37:33.023Z,-0.09
2018-03-18T02:38:32.985Z,-0.09
2018-03-18T02:39:32.956Z,-0.08
2018-03-18T02:40:32.926Z,-0.05
2018-03-18T02:41:32.893Z,-0.08
2018-03-18T02:42:32.862Z,-0.09
2018-03-18T02:43:32.836Z,-0.09
2018-03-18T02:44:32.804Z,-0.08
2018-03-18T02:45:32.782Z,0.00
2018-03-18T02:46:32.742Z,-0.12
2018-03-18T02:47:32.712Z,-0.06
2018-03-18T02:48:32.682Z,-0.04
2018-03-18T02:49:32.652Z,-0.06
2018-03-18T02:50:32.622Z,-0.06
2018-03-18T02:51:32.590Z,-0.04
2018-03-18T02:52:32.572Z,-0.08
2018-03-18T02:53:32.530Z,-0.12
2018-03-18T02:54:32.503Z,-0.09
2018-03-18T02:55:32.470Z,-0.06
2018-03-18T02:56:32.443Z,-0.04
2018-03-18T02:57:32.410Z,-0.06
2018-03-18T02:58:32.381Z,-0.08
2018-03-18T02:59:32.351Z,-0.08
2018-03-18T03:00:32.323Z,-0.09
2018-03-18T03:01:32.291Z,0.00
2018-03-18T03:02:32.265Z,-0.05
2018-03-18T03:03:32.228Z,-0.05
2018-03-18T03:04:32.199Z,-0.09
2018-03-18T03:05:32.170Z,-0.01
2018-03-18T03:06:32.142Z,-0.06
2018-03-18T03:07:32.108Z,-0.09
2018-03-18T03:08:32.077Z,-0.11
2018-03-18T03:09:32.051Z,-0.08
2018-03-18T03:10:32.018Z,-0.11
2018-03-18T03:11:31.989Z,-0.09
2018-03-18T03:12:31.960Z,-0.16
2018-03-18T03:13:31.926Z,-0.15
2018-03-18T03:14:31.897Z,-0.12
2018-03-18T03:15:31.869Z,-0.18
2018-03-18T03:16:32.592Z,-0.19
2018-03-18T03:17:31.809Z,-0.22
2018-03-18T03:18:31.780Z,-0.19
2018-03-18T03:19:31.747Z,-0.16
2018-03-18T03:20:31.716Z,-0.22
2018-03-18T03:21:31.684Z,-0.23
2018-03-18T03:22:31.655Z,-0.15
2018-03-18T03:23:31.624Z,-0.15
2018-03-18T03:24:31.595Z,-0.15
2018-03-18T03:25:31.564Z,-0.12
2018-03-18T03:26:31.534Z,-0.18
2018-03-18T03:27:31.519Z,-0.22
2018-03-18T03:28:31.475Z,-0.19
2018-03-18T03:29:31.444Z,-0.19
2018-03-18T03:30:31.418Z,-0.23
2018-03-18T03:31:31.385Z,-0.13
2018-03-18T03:32:31.353Z,-0.16
2018-03-18T03:33:31.322Z,-0.12
2018-03-18T03:34:31.293Z,-0.12
2018-03-18T03:35:31.262Z,-0.16
2018-03-18T03:36:31.235Z,-0.13
2018-03-18T03:37:31.202Z,-0.29
2018-03-18T03:38:31.922Z,-0.16
2018-03-18T03:39:31.141Z,-0.08
2018-03-18T03:40:31.109Z,-0.15
2018-03-18T03:41:31.080Z,-0.06
2018-03-18T03:42:31.049Z,0.00
2018-03-18T03:43:31.021Z,-0.08
2018-03-18T03:44:30.990Z,-0.08
2018-03-18T03:45:30.959Z,-0.04
2018-03-18T03:46:30.931Z,-0.08
2018-03-18T03:47:30.901Z,-0.11
2018-03-18T03:48:30.869Z,-0.12
2018-03-18T03:49:30.838Z,-0.15
2018-03-18T03:50:30.809Z,-0.18
2018-03-18T03:51:30.782Z,-0.33
2018-03-18T03:52:30.748Z,-0.19
2018-03-18T03:53:30.718Z,-0.15
2018-03-18T03:54:30.691Z,-0.16
2018-03-18T03:55:30.659Z,-0.19
2018-03-18T03:56:30.629Z,-0.18
2018-03-18T03:57:30.597Z,-0.19
2018-03-18T03:58:30.567Z,-0.26
2018-03-18T03:59:30.539Z,-0.24
2018-03-18T04:00:31.256Z,-0.23
2018-03-18T04:01:30.477Z,-0.29
2018-03-18T04:02:30.447Z,-0.29
2018-03-18T04:03:30.415Z,-0.22
2018-03-18T04:04:30.385Z,-0.27
2018-03-18T04:05:30.356Z,-0.26
2018-03-18T04:06:30.327Z,-0.24
2018-03-18T04:07:30.296Z,-0.30
2018-03-18T04:08:30.264Z,-0.33
2018-03-18T04:09:30.235Z,-0.31
2018-03-18T04:10:30.203Z,-0.34
2018-03-18T04:11:30.175Z,-0.31
2018-03-18T04:12:30.143Z,-0.30
2018-03-18T04:13:30.113Z,-0.36
2018-03-18T04:14:30.084Z,-0.37
2018-03-18T04:15:30.051Z,-0.30
2018-03-18T04:16:30.021Z,-0.37
2018-03-18T04:17:29.995Z,-0.37
2018-03-18T04:18:29.962Z,-0.34
2018-03-18T04:19:29.931Z,-0.39
2018-03-18T04:20:29.903Z,-0.37
2018-03-18T04:21:29.876Z,-0.31
2018-03-18T04:22:29.841Z,-0.36
2018-03-18T04:23:29.809Z,-0.36
2018-03-18T04:24:29.779Z,-0.33
2018-03-18T04:25:29.748Z,-0.34
2018-03-18T04:26:29.719Z,-0.34
2018-03-18T04:27:29.687Z,-0.36
2018-03-18T04:28:29.662Z,-0.45
2018-03-18T04:29:29.626Z,-0.33
2018-03-18T04:30:29.598Z,-0.36
2018-03-18T04:31:29.566Z,-0.29
2018-03-18T04:32:29.536Z,-0.36
2018-03-18T04:33:29.510Z,-0.37
2018-03-18T04:34:29.478Z,-0.33
2018-03-18T04:35:29.447Z,-0.41
2018-03-18T04:36:29.415Z,-0.44
2018-03-18T04:37:29.384Z,-0.44
2018-03-18T04:38:29.354Z,-0.44
2018-03-18T04:39:29.323Z,-0.34
2018-03-18T04:40:29.293Z,-0.34
2018-03-18T04:41:29.263Z,-0.31
2018-03-18T04:42:29.232Z,-0.29
2018-03-18T04:43:29.202Z,-0.39
2018-03-18T04:44:29.169Z,-0.39
2018-03-18T04:45:29.141Z,-0.34
2018-03-18T04:46:29.111Z,-0.33
2018-03-18T04:47:29.082Z,-0.29
2018-03-18T04:48:29.049Z,-0.41
2018-03-18T04:49:29.019Z,-0.39
2018-03-18T04:50:28.990Z,-0.42
2018-03-18T04:51:28.958Z,-0.47
2018-03-18T04:52:28.929Z,-0.39
2018-03-18T04:53:30.399Z,-0.51
2018-03-18T04:54:28.869Z,-0.42
2018-03-18T04:55:28.837Z,-0.44
2018-03-18T04:56:28.805Z,-0.42
2018-03-18T04:57:28.776Z,-0.44
2018-03-18T04:58:28.746Z,-0.41
2018-03-18T04:59:30.216Z,-0.42
2018-03-18T05:00:28.686Z,-0.37
2018-03-18T05:01:28.655Z,-0.34
2018-03-18T05:02:28.624Z,-0.39
2018-03-18T05:03:28.592Z,-0.41
2018-03-18T05:04:28.563Z,-0.41
2018-03-18T05:05:28.532Z,-0.33
2018-03-18T05:06:28.506Z,-0.42
2018-03-18T05:07:28.472Z,-0.41
2018-03-18T05:08:28.442Z,-0.41
2018-03-18T05:09:28.412Z,-0.45
2018-03-18T05:10:28.382Z,-0.42
2018-03-18T05:11:28.349Z,-0.36
2018-03-18T05:12:28.318Z,-0.37
2018-03-18T05:13:28.291Z,-0.47
2018-03-18T05:14:28.263Z,-0.41
2018-03-18T05:15:28.228Z,-0.42
2018-03-18T05:16:28.200Z,-0.45
2018-03-18T05:17:28.167Z,-0.48
2018-03-18T05:18:28.137Z,-0.44
2018-03-18T05:19:28.105Z,-0.39
2018-03-18T05:20:28.075Z,-0.41
2018-03-18T05:21:28.048Z,-0.42
2018-03-18T05:22:28.017Z,-0.36
2018-03-18T05:23:27.984Z,-0.42
2018-03-18T05:24:27.956Z,-0.45
2018-03-18T05:25:27.924Z,-0.37
2018-03-18T05:26:27.895Z,-0.37
2018-03-18T05:27:27.865Z,-0.41
2018-03-18T05:28:27.833Z,-0.41
2018-03-18T05:29:27.804Z,-0.34
2018-03-18T05:30:27.773Z,-0.44
2018-03-18T05:31:27.741Z,-0.41
2018-03-18T05:32:27.712Z,-0.37
2018-03-18T05:33:27.680Z,-0.45
2018-03-18T05:34:27.652Z,-0.36
2018-03-18T05:35:27.621Z,-0.41
2018-03-18T05:36:27.590Z,-0.37
2018-03-18T05:37:27.561Z,-0.41
2018-03-18T05:38:27.530Z,-0.52
2018-03-18T05:39:27.498Z,-0.41
2018-03-18T05:40:27.468Z,-0.48
2018-03-18T05:41:27.438Z,-0.41
2018-03-18T05:42:27.409Z,-0.39
2018-03-18T05:43:27.376Z,-0.36
2018-03-18T05:44:27.348Z,-0.45
2018-03-18T05:45:27.320Z,-0.34
2018-03-18T05:46:27.288Z,-0.42
2018-03-18T05:47:27.256Z,-0.52
2018-03-18T05:48:27.225Z,-0.52
2018-03-18T05:49:27.196Z,-0.44
2018-03-18T05:50:27.166Z,-0.42
2018-03-18T05:51:27.136Z,-0.41
2018-03-18T05:52:27.106Z,-0.44
2018-03-18T05:53:27.123Z,-0.48
2018-03-18T05:54:27.045Z,-0.39
2018-03-18T05:55:27.013Z,-0.33
2018-03-18T05:56:26.984Z,-0.44
2018-03-18T05:57:26.953Z,-0.37
2018-03-18T05:58:26.921Z,-0.48
2018-03-18T05:59:28.393Z,-0.50
2018-03-18T06:00:26.863Z,-0.39
2018-03-18T06:01:26.830Z,-0.36
2018-03-18T06:02:26.802Z,-0.39
2018-03-18T06:03:26.772Z,-0.44
2018-03-18T06:04:26.739Z,-0.37
2018-03-18T06:05:26.711Z,-0.42
2018-03-18T06:06:26.679Z,-0.41
2018-03-18T06:07:26.650Z,-0.44
2018-03-18T06:08:26.618Z,-0.45
2018-03-18T06:09:26.589Z,-0.39
2018-03-18T06:10:26.558Z,-0.36
2018-03-18T06:11:26.529Z,-0.37
2018-03-18T06:12:26.548Z,-0.41
2018-03-18T06:13:26.466Z,-0.36
2018-03-18T06:14:26.439Z,-0.33
2018-03-18T06:15:26.404Z,-0.30
2018-03-18T06:16:28.628Z,-0.26
2018-03-18T06:17:26.345Z,-0.27
2018-03-18T06:18:26.318Z,-0.31
2018-03-18T06:19:26.284Z,-0.30
2018-03-18T06:20:26.253Z,-0.33
2018-03-18T06:21:26.225Z,-0.29
2018-03-18T06:22:26.201Z,-0.39
2018-03-18T06:23:26.162Z,-0.45
2018-03-18T06:24:26.133Z,-0.39
2018-03-18T06:25:26.107Z,-0.42
2018-03-18T06:26:26.073Z,-0.34
2018-03-18T06:27:26.043Z,-0.37
2018-03-18T06:28:26.012Z,-0.37
2018-03-18T06:29:25.983Z,-0.50
2018-03-18T06:30:25.952Z,-0.48
2018-03-18T06:31:25.936Z,-0.52
2018-03-18T06:32:25.890Z,-0.50
2018-03-18T06:33:25.861Z,-0.44
2018-03-18T06:34:25.834Z,-0.34
2018-03-18T06:35:25.800Z,-0.50
2018-03-18T06:36:25.768Z,-0.41
2018-03-18T06:37:25.777Z,-0.51
2018-03-18T06:38:25.709Z,-0.54
2018-03-18T06:39:25.678Z,-0.55
2018-03-18T06:40:25.648Z,-0.54
2018-03-18T06:41:25.620Z,-0.51
2018-03-18T06:42:25.587Z,-0.47
2018-03-18T06:43:25.557Z,-0.57
2018-03-18T06:44:25.529Z,-0.62
2018-03-18T06:45:25.496Z,-0.44
2018-03-18T06:46:25.465Z,-0.52
2018-03-18T06:47:25.434Z,-0.51
2018-03-18T06:48:25.405Z,-0.41
2018-03-18T06:49:25.418Z,-0.55
2018-03-18T06:50:25.351Z,-0.37
2018-03-18T06:51:25.316Z,-0.48
2018-03-18T06:52:25.283Z,-0.45
2018-03-18T06:53:25.323Z,-0.41
2018-03-18T06:54:25.224Z,-0.50
2018-03-18T06:55:25.191Z,-0.50
2018-03-18T06:56:25.162Z,-0.42
2018-03-18T06:57:25.132Z,-0.52
2018-03-18T06:58:25.102Z,-0.54
2018-03-18T06:59:25.072Z,-0.39
2018-03-18T07:00:25.040Z,-0.41
2018-03-18T07:01:25.012Z,-0.45
2018-03-18T07:02:24.981Z,-0.42
2018-03-18T07:03:24.950Z,-0.50
2018-03-18T07:04:27.172Z,-0.44
2018-03-18T07:05:24.889Z,-0.42
2018-03-18T07:06:24.860Z,-0.37
2018-03-18T07:07:24.848Z,-0.37
2018-03-18T07:08:24.799Z,-0.42
2018-03-18T07:09:24.768Z,-0.34
2018-03-18T07:10:24.738Z,-0.37
2018-03-18T07:11:24.707Z,-0.41
2018-03-18T07:12:24.677Z,-0.33
2018-03-18T07:13:24.647Z,-0.37
2018-03-18T07:14:24.617Z,-0.37
2018-03-18T07:15:24.586Z,-0.37
2018-03-18T07:16:24.555Z,-0.39
2018-03-18T07:17:24.529Z,-0.50
2018-03-18T07:18:24.496Z,-0.41
2018-03-18T07:19:24.465Z,-0.36
2018-03-18T07:20:24.436Z,-0.36
2018-03-18T07:21:24.403Z,-0.30
2018-03-18T07:22:24.383Z,-0.36
2018-03-18T07:23:24.344Z,-0.34
2018-03-18T07:24:24.313Z,-0.48
2018-03-18T07:25:24.283Z,-0.41
2018-03-18T07:26:24.253Z,-0.44
2018-03-18T07:27:24.222Z,-0.39
2018-03-18T07:28:24.193Z,-0.44
2018-03-18T07:29:24.164Z,-0.33
2018-03-18T07:30:24.132Z,-0.37
2018-03-18T07:31:24.102Z,-0.41
2018-03-18T07:32:24.071Z,-0.48
2018-03-18T07:33:24.041Z,-0.42
2018-03-18T07:34:24.012Z,-0.30
2018-03-18T07:35:23.982Z,-0.30
2018-03-18T07:36:23.951Z,-0.37
2018-03-18T07:37:23.921Z,-0.34
2018-03-18T07:38:23.892Z,-0.41
2018-03-18T07:39:23.866Z,-0.39
2018-03-18T07:40:23.832Z,-0.39
2018-03-18T07:41:23.800Z,-0.36
2018-03-18T07:42:23.770Z,-0.34
2018-03-18T07:43:23.739Z,-0.39
2018-03-18T07:44:23.710Z,-0.42
2018-03-18T07:45:23.680Z,-0.55
2018-03-18T07:46:23.652Z,-0.48
2018-03-18T07:47:23.620Z,-0.42
2018-03-18T07:48:23.597Z,-0.45
2018-03-18T07:49:23.561Z,-0.42
2018-03-18T07:50:23.530Z,-0.44
2018-03-18T07:51:23.499Z,-0.37
2018-03-18T07:52:23.469Z,-0.45
2018-03-18T07:53:23.506Z,-0.42
2018-03-18T07:54:23.408Z,-0.44
2018-03-18T07:55:23.378Z,-0.37
2018-03-18T07:56:23.348Z,-0.44
2018-03-18T07:57:23.319Z,-0.44
2018-03-18T07:58:23.288Z,-0.45
2018-03-18T07:59:23.256Z,-0.42
2018-03-18T08:00:23.227Z,-0.36
2018-03-18T08:01:23.200Z,-0.37
2018-03-18T08:02:23.167Z,-0.41
2018-03-18T08:03:23.135Z,-0.48
2018-03-18T08:04:23.108Z,-0.54
2018-03-18T08:05:23.074Z,-0.48
2018-03-18T08:06:23.046Z,-0.39
2018-03-18T08:07:23.014Z,-0.22
2018-03-18T08:08:22.985Z,-0.24
2018-03-18T08:09:22.965Z,-0.18
2018-03-18T08:10:22.925Z,-0.29
2018-03-18T08:11:22.893Z,-0.22
2018-03-18T08:12:22.867Z,-0.30
2018-03-18T08:13:22.834Z,-0.27
2018-03-18T08:14:22.810Z,-0.22
2018-03-18T08:15:22.781Z,-0.13
2018-03-18T08:16:22.744Z,-0.15
2018-03-18T08:17:22.714Z,-0.15
2018-03-18T08:18:22.693Z,-0.34
2018-03-18T08:19:22.653Z,-0.29
2018-03-18T08:20:22.625Z,-0.33
2018-03-18T08:21:22.594Z,-0.36
2018-03-18T08:22:22.565Z,-0.30
2018-03-18T08:23:22.532Z,-0.27
2018-03-18T08:24:22.503Z,-0.18
2018-03-18T08:25:22.475Z,-0.19
2018-03-18T08:26:22.445Z,-0.18
2018-03-18T08:27:22.414Z,-0.22
2018-03-18T08:28:22.386Z,-0.22
2018-03-18T08:29:22.354Z,-0.30
2018-03-18T08:30:22.325Z,-0.27
2018-03-18T08:31:22.295Z,-0.24
2018-03-18T08:32:22.266Z,-0.19
2018-03-18T08:33:22.233Z,-0.15
2018-03-18T08:34:22.204Z,-0.11
2018-03-18T08:35:23.676Z,-0.12
2018-03-18T08:36:22.146Z,-0.15
2018-03-18T08:37:22.116Z,-0.18
2018-03-18T08:38:22.086Z,-0.22
2018-03-18T08:39:22.054Z,-0.23
2018-03-18T08:40:22.025Z,-0.12
2018-03-18T08:41:22.002Z,-0.04
2018-03-18T08:42:21.967Z,0.03
2018-03-18T08:43:21.936Z,-0.11
2018-03-18T08:44:21.905Z,0.05
2018-03-18T08:45:21.875Z,0.03
2018-03-18T08:46:21.854Z,0.06
2018-03-18T08:47:21.817Z,0.12
2018-03-18T08:48:21.787Z,0.05
2018-03-18T08:49:21.756Z,0.09
2018-03-18T08:50:21.727Z,0.20
2018-03-18T08:51:21.701Z,0.20
2018-03-18T08:52:30.727Z,0.10
2018-03-18T08:53:21.638Z,0.21
2018-03-18T08:54:21.611Z,0.20
2018-03-18T08:55:21.579Z,0.12
2018-03-18T08:56:21.549Z,0.18
2018-03-18T08:57:21.521Z,0.18
2018-03-18T08:58:22.243Z,0.21
2018-03-18T08:59:21.462Z,0.23
2018-03-18T09:00:21.433Z,0.16
2018-03-18T09:01:21.407Z,0.20
2018-03-18T09:02:21.373Z,0.13
2018-03-18T09:03:21.343Z,0.20
2018-03-18T09:04:21.349Z,0.34
2018-03-18T09:05:21.286Z,0.24
2018-03-18T09:06:21.258Z,0.38
2018-03-18T09:07:21.228Z,0.41
2018-03-18T09:08:21.200Z,0.34
2018-03-18T09:09:21.169Z,0.23
2018-03-18T09:10:21.143Z,0.24
2018-03-18T09:11:21.112Z,0.36
2018-03-18T09:12:21.082Z,0.42
2018-03-18T09:13:21.052Z,0.33
2018-03-18T09:14:21.025Z,0.30
2018-03-18T09:15:20.995Z,0.49
2018-03-18T09:16:20.966Z,0.53
2018-03-18T09:17:20.937Z,0.57
2018-03-18T09:18:20.908Z,0.51
2018-03-18T09:19:20.878Z,0.52
2018-03-18T09:20:20.914Z,0.48
2018-03-18T09:21:20.821Z,0.53
2018-03-18T09:22:20.802Z,0.49
2018-03-18T09:23:20.763Z,0.53
2018-03-18T09:24:20.734Z,0.68
2018-03-18T09:25:20.714Z,0.57
2018-03-18T09:26:20.677Z,0.42
2018-03-18T09:27:20.674Z,0.53
2018-03-18T09:28:20.620Z,0.52
2018-03-18T09:29:20.590Z,0.39
2018-03-18T09:30:20.571Z,0.42
2018-03-18T09:31:20.533Z,0.49
2018-03-18T09:32:20.504Z,0.61
2018-03-18T09:33:20.475Z,0.58
2018-03-18T09:34:20.449Z,0.45
2018-03-18T09:35:20.418Z,0.42
2018-03-18T09:36:20.396Z,0.31
2018-03-18T09:37:20.362Z,0.41
2018-03-18T09:38:20.343Z,0.48
2018-03-18T09:39:20.303Z,0.43
2018-03-18T09:40:20.275Z,0.52
2018-03-18T09:41:22.498Z,0.57
2018-03-18T09:42:20.221Z,0.49
2018-03-18T09:43:20.188Z,0.53
2018-03-18T09:44:20.161Z,0.48
2018-03-18T09:45:20.133Z,0.42
2018-03-18T09:46:20.111Z,0.41
2018-03-18T09:47:20.823Z,0.49
2018-03-18T09:48:20.046Z,0.45
2018-03-18T09:49:20.017Z,0.33
2018-03-18T09:50:19.989Z,0.52
2018-03-18T09:51:19.960Z,0.53
2018-03-18T09:52:19.929Z,0.46
2018-03-18T09:53:19.904Z,0.57
2018-03-18T09:54:19.875Z,0.51
2018-03-18T09:55:19.845Z,0.58
2018-03-18T09:56:19.833Z,0.57
2018-03-18T09:57:19.788Z,0.38
2018-03-18T09:58:20.512Z,0.38
2018-03-18T09:59:19.729Z,0.45
2018-03-18T10:00:19.702Z,0.38
2018-03-18T10:01:19.750Z,0.53
2018-03-18T10:02:19.773Z,0.53
2018-03-18T10:03:19.658Z,0.48
2018-03-18T10:04:19.589Z,0.51
2018-03-18T10:05:19.560Z,0.52
2018-03-18T10:06:19.529Z,0.67
2018-03-18T10:07:19.498Z,0.71
2018-03-18T10:08:19.469Z,0.70
2018-03-18T10:09:19.442Z,0.72
2018-03-18T10:10:19.415Z,0.85
2018-03-18T10:11:19.387Z,0.86
2018-03-18T10:12:19.354Z,0.85
2018-03-18T10:13:19.328Z,0.67
2018-03-18T10:14:19.298Z,0.65
2018-03-18T10:15:19.269Z,0.75
2018-03-18T10:16:19.242Z,0.68
2018-03-18T10:17:19.211Z,0.70
2018-03-18T10:18:19.182Z,0.88
2018-03-18T10:19:19.154Z,0.86
2018-03-18T10:20:19.193Z,0.83
2018-03-18T10:21:19.097Z,0.76
2018-03-18T10:22:19.069Z,0.89
2018-03-18T10:23:19.046Z,0.89
2018-03-18T10:24:19.014Z,0.89
2018-03-18T10:25:18.983Z,0.89
2018-03-18T10:26:18.955Z,0.86
2018-03-18T10:27:18.926Z,0.80
2018-03-18T10:28:18.898Z,0.96
2018-03-18T10:29:18.870Z,0.89
2018-03-18T10:30:18.843Z,0.96
2018-03-18T10:31:18.812Z,0.86
2018-03-18T10:32:18.790Z,0.90
2018-03-18T10:33:18.755Z,0.92
2018-03-18T10:34:18.726Z,0.86
2018-03-18T10:35:18.699Z,0.83
2018-03-18T10:36:18.672Z,0.96
2018-03-18T10:37:18.641Z,0.85
2018-03-18T10:38:18.614Z,0.85
2018-03-18T10:39:18.584Z,0.89
2018-03-18T10:40:18.557Z,0.92
2018-03-18T10:41:18.529Z,0.90
2018-03-18T10:42:18.516Z,0.88
2018-03-18T10:43:18.472Z,0.89
2018-03-18T10:44:18.443Z,0.86
2018-03-18T10:45:18.416Z,0.86
2018-03-18T10:46:18.390Z,0.76
2018-03-18T10:47:18.359Z,0.86
2018-03-18T10:48:18.330Z,0.82
2018-03-18T10:49:18.304Z,0.78
2018-03-18T10:50:18.277Z,0.82
2018-03-18T10:51:18.248Z,0.80
2018-03-18T10:52:18.218Z,0.82
2018-03-18T10:53:18.193Z,0.96
2018-03-18T10:54:18.163Z,0.96
2018-03-18T10:55:18.132Z,1.06
2018-03-18T10:56:18.106Z,0.82
2018-03-18T10:57:18.077Z,0.92
2018-03-18T10:58:18.049Z,0.88
2018-03-18T10:59:18.028Z,0.96
2018-03-18T11:00:17.990Z,0.98
2018-03-18T11:01:17.964Z,1.08
2018-03-18T11:02:17.937Z,1.07
2018-03-18T11:03:17.907Z,1.08
2018-03-18T11:04:17.878Z,1.03
2018-03-18T11:05:17.849Z,0.98
2018-03-18T11:06:17.823Z,0.97
2018-03-18T11:07:17.794Z,0.96
2018-03-18T11:08:17.767Z,1.03
2018-03-18T11:09:17.738Z,0.88
2018-03-18T11:10:17.710Z,0.85
2018-03-18T11:11:17.683Z,0.89
2018-03-18T11:12:17.655Z,0.90
2018-03-18T11:13:17.624Z,0.92
2018-03-18T11:14:17.596Z,0.86
2018-03-18T11:15:17.568Z,0.89
2018-03-18T11:16:17.558Z,0.88
2018-03-18T11:17:17.512Z,0.86
2018-03-18T11:18:17.483Z,0.92
2018-03-18T11:19:17.456Z,0.94
2018-03-18T11:20:17.431Z,0.94
2018-03-18T11:21:17.398Z,0.82
2018-03-18T11:22:18.121Z,0.90
2018-03-18T11:23:17.343Z,0.98
2018-03-18T11:24:17.312Z,1.01
2018-03-18T11:25:17.285Z,1.15
2018-03-18T11:26:17.258Z,1.03
2018-03-18T11:27:17.228Z,1.04
2018-03-18T11:28:17.200Z,1.01
2018-03-18T11:29:17.172Z,1.08
2018-03-18T11:30:17.142Z,1.12
2018-03-18T11:31:17.115Z,1.07
2018-03-18T11:32:17.086Z,1.08
2018-03-18T11:33:17.059Z,1.00
2018-03-18T11:34:17.032Z,0.96
2018-03-18T11:35:17.007Z,1.03
2018-03-18T11:36:16.976Z,1.03
2018-03-18T11:37:16.945Z,1.14
2018-03-18T11:38:16.918Z,1.04
2018-03-18T11:39:16.887Z,1.07
2018-03-18T11:40:16.861Z,1.10
2018-03-18T11:41:16.832Z,1.01
2018-03-18T11:42:16.805Z,1.07
2018-03-18T11:43:16.777Z,1.14
2018-03-18T11:44:16.747Z,1.01
2018-03-18T11:45:16.718Z,1.10
2018-03-18T11:46:16.692Z,1.00
2018-03-18T11:47:16.662Z,0.94
2018-03-18T11:48:16.634Z,0.90
2018-03-18T11:49:16.605Z,0.90
2018-03-18T11:50:16.579Z,1.06
2018-03-18T11:51:16.553Z,1.10
2018-03-18T11:52:16.522Z,1.26
2018-03-18T11:53:16.496Z,1.07
2018-03-18T11:54:16.463Z,1.18
2018-03-18T11:55:16.457Z,1.40
2018-03-18T11:56:16.406Z,1.28
2018-03-18T11:57:16.379Z,1.22
2018-03-18T11:58:16.351Z,1.14
2018-03-18T11:59:16.324Z,1.18
2018-03-18T12:00:16.299Z,1.19
2018-03-18T12:01:16.267Z,1.22
2018-03-18T12:02:16.244Z,1.19
2018-03-18T12:03:16.214Z,1.37
2018-03-18T12:04:16.180Z,1.39
2018-03-18T12:05:16.152Z,1.32
2018-03-18T12:06:16.124Z,1.36
2018-03-18T12:07:16.094Z,1.51
2018-03-18T12:08:16.068Z,1.46
2018-03-18T12:09:16.044Z,1.33
2018-03-18T12:10:16.012Z,1.22
2018-03-18T12:11:15.982Z,1.12
2018-03-18T12:12:15.955Z,1.22
2018-03-18T12:13:15.926Z,1.24
2018-03-18T12:14:15.897Z,1.36
2018-03-18T12:15:15.869Z,1.50
2018-03-18T12:16:15.840Z,1.47
2018-03-18T12:17:15.813Z,1.40
2018-03-18T12:18:15.785Z,1.24
2018-03-18T12:19:15.755Z,1.39
2018-03-18T12:20:15.729Z,1.32
2018-03-18T12:21:15.700Z,1.29
2018-03-18T12:22:15.673Z,1.37
2018-03-18T12:23:15.643Z,1.37
2018-03-18T12:24:15.615Z,1.32
2018-03-18T12:25:16.339Z,1.18
2018-03-18T12:26:15.560Z,1.14
2018-03-18T12:27:15.530Z,1.36
2018-03-18T12:28:15.501Z,1.42
2018-03-18T12:29:15.474Z,1.42
2018-03-18T12:30:15.446Z,1.46
2018-03-18T12:31:15.416Z,1.55
2018-03-18T12:32:15.390Z,1.55
2018-03-18T12:33:15.363Z,1.55
2018-03-18T12:34:15.340Z,1.58
2018-03-18T12:35:15.305Z,1.75
2018-03-18T12:36:15.277Z,1.78
2018-03-18T12:37:15.250Z,1.75
2018-03-18T12:38:15.221Z,1.75
2018-03-18T12:39:15.194Z,1.85
2018-03-18T12:40:15.170Z,1.83
2018-03-18T12:41:15.137Z,1.80
2018-03-18T12:42:15.111Z,1.65
2018-03-18T12:43:15.081Z,1.62
2018-03-18T12:44:15.055Z,1.57
2018-03-18T12:45:15.025Z,1.60
2018-03-18T12:46:14.997Z,1.62
2018-03-18T12:47:14.970Z,1.57
2018-03-18T12:48:14.955Z,1.62
2018-03-18T12:49:14.922Z,1.62
2018-03-18T12:50:14.887Z,1.76
2018-03-18T12:51:14.857Z,1.76
2018-03-18T12:52:14.830Z,1.71
2018-03-18T12:53:14.804Z,1.64
2018-03-18T12:54:14.775Z,1.71
2018-03-18T12:55:14.749Z,1.69
2018-03-18T12:56:14.721Z,1.68
2018-03-18T12:57:14.693Z,1.75
2018-03-18T12:58:14.667Z,1.79
2018-03-18T12:59:14.637Z,1.82
2018-03-18T13:00:14.610Z,1.75
2018-03-18T13:01:14.582Z,1.72
2018-03-18T13:02:14.555Z,1.93
2018-03-18T13:03:14.527Z,1.97
2018-03-18T13:04:14.500Z,1.98
2018-03-18T13:05:14.473Z,1.89